createdAt,value
2017-08-21T00:00:34.789Z,92.79
2017-08-21T00:01:34.918Z,93.09
2017-08-21T00:02:34.873Z,92.67
2017-08-21T00:03:34.732Z,92.17
2017-08-21T00:04:34.776Z,93.14
2017-08-21T00:05:34.831Z,93.22
2017-08-21T00:06:34.776Z,92.96
2017-08-21T00:07:34.849Z,92.71
2017-08-21T00:08:34.385Z,93.09
2017-08-21T00:09:34.437Z,92.34
2017-08-21T00:10:34.397Z,93.16
2017-08-21T00:11:34.443Z,93.09
2017-08-21T00:12:34.410Z,93.43
2017-08-21T00:13:34.353Z,93.48
2017-08-21T00:14:34.793Z,93.34
2017-08-21T00:15:34.864Z,93.19
2017-08-21T00:16:34.814Z,93.48
2017-08-21T00:17:34.850Z,94.04
2017-08-21T00:18:34.799Z,93.39
2017-08-21T00:19:34.849Z,93.40
2017-08-21T00:20:34.857Z,93.37
2017-08-21T00:21:34.835Z,93.90
2017-08-21T00:22:34.890Z,93.60
2017-08-21T00:23:34.865Z,93.55
2017-08-21T00:24:34.404Z,93.78
2017-08-21T00:25:34.437Z,93.41
2017-08-21T00:26:34.472Z,92.81
2017-08-21T00:27:34.510Z,92.86
2017-08-21T00:28:34.454Z,92.88
2017-08-21T00:29:34.497Z,92.29
2017-08-21T00:30:34.461Z,91.58
2017-08-21T00:31:34.892Z,93.49
2017-08-21T00:32:34.865Z,93.30
2017-08-21T00:33:34.856Z,92.91
2017-08-21T00:34:35.000Z,93.23
2017-08-21T00:35:34.859Z,91.48
2017-08-21T00:36:34.940Z,92.27
2017-08-21T00:37:34.888Z,93.16
2017-08-21T00:38:34.860Z,92.83
2017-08-21T00:39:34.907Z,92.56
2017-08-21T00:40:34.453Z,93.55
2017-08-21T00:41:34.503Z,93.79
2017-08-21T00:42:34.481Z,93.29
2017-08-21T00:43:34.516Z,93.47
2017-08-21T00:44:34.567Z,93.94
2017-08-21T00:45:34.528Z,93.46
2017-08-21T00:46:34.478Z,93.66
2017-08-21T00:47:34.636Z,93.28
2017-08-21T00:48:34.503Z,94.12
2017-08-21T00:49:34.967Z,94.44
2017-08-21T00:50:34.903Z,93.26
2017-08-21T00:51:34.856Z,93.11
2017-08-21T00:52:34.995Z,92.18
2017-08-21T00:53:34.930Z,93.39
2017-08-21T00:54:34.975Z,92.94
2017-08-21T00:55:34.920Z,93.53
2017-08-21T00:56:34.961Z,93.04
2017-08-21T00:57:35.001Z,93.68
2017-08-21T00:58:34.548Z,93.70
2017-08-21T00:59:34.587Z,94.53
2017-08-21T01:02:32.476Z,93.83
2017-08-21T01:02:33.592Z,93.88
2017-08-21T01:02:34.502Z,92.90
2017-08-21T01:05:49.660Z,93.10
2017-08-21T01:05:50.773Z,94.49
2017-08-21T01:05:51.380Z,94.89
2017-08-21T01:08:35.675Z,94.95
2017-08-21T01:08:36.700Z,93.53
2017-08-21T01:08:37.308Z,94.21
2017-08-21T01:11:49.644Z,94.35
2017-08-21T01:11:50.252Z,94.13
2017-08-21T01:11:50.857Z,94.56
2017-08-21T01:14:34.033Z,94.43
2017-08-21T01:14:35.046Z,93.11
2017-08-21T01:14:35.658Z,93.75
2017-08-21T01:17:50.537Z,92.02
2017-08-21T01:17:51.552Z,92.18
2017-08-21T01:17:52.158Z,92.58
2017-08-21T01:21:09.822Z,91.58
2017-08-21T01:21:10.837Z,92.52
2017-08-21T01:21:11.446Z,94.24
2017-08-21T01:23:47.512Z,94.65
2017-08-21T01:23:48.524Z,93.95
2017-08-21T01:23:49.232Z,93.83
2017-08-21T01:26:33.927Z,93.25
2017-08-21T01:26:35.046Z,94.03
2017-08-21T01:26:35.652Z,93.61
2017-08-21T01:29:45.474Z,93.30
2017-08-21T01:29:46.079Z,93.31
2017-08-21T01:29:46.689Z,93.78
2017-08-21T01:32:33.925Z,93.96
2017-08-21T01:32:34.536Z,94.54
2017-08-21T01:32:35.145Z,94.22
2017-08-21T01:35:42.582Z,94.30
2017-08-21T01:35:43.597Z,92.80
2017-08-21T01:35:44.220Z,94.45
2017-08-21T01:38:20.770Z,94.87
2017-08-21T01:38:21.790Z,95.13
2017-08-21T01:38:34.620Z,95.30
2017-08-21T01:41:47.674Z,94.86
2017-08-21T01:41:48.691Z,94.13
2017-08-21T01:41:49.299Z,94.56
2017-08-21T01:44:21.032Z,94.51
2017-08-21T01:44:22.052Z,94.64
2017-08-21T01:44:34.710Z,93.43
2017-08-21T01:47:53.653Z,94.54
2017-08-21T01:47:54.263Z,93.67
2017-08-21T01:47:54.870Z,94.63
2017-08-21T01:50:41.858Z,95.00
2017-08-21T01:50:42.467Z,94.51
2017-08-21T01:50:43.073Z,94.80
2017-08-21T01:53:54.597Z,94.70
2017-08-21T01:53:55.610Z,94.70
2017-08-21T01:53:56.218Z,93.17
2017-08-21T01:56:37.814Z,93.93
2017-08-21T01:56:38.825Z,93.39
2017-08-21T01:56:39.433Z,94.54
2017-08-21T01:59:55.622Z,92.99
2017-08-21T01:59:56.228Z,92.03
2017-08-21T01:59:56.838Z,93.68
2017-08-21T02:00:34.739Z,94.27
2017-08-21T02:01:35.119Z,95.33
2017-08-21T02:02:35.170Z,94.76
2017-08-21T02:03:34.702Z,94.47
2017-08-21T02:04:34.695Z,94.94
2017-08-21T02:05:34.760Z,93.86
2017-08-21T02:06:34.706Z,94.01
2017-08-21T02:07:34.745Z,94.57
2017-08-21T02:08:34.713Z,94.79
2017-08-21T02:09:34.778Z,94.90
2017-08-21T02:10:34.816Z,94.37
2017-08-21T02:11:34.764Z,94.33
2017-08-21T02:12:35.238Z,93.74
2017-08-21T02:13:35.187Z,94.37
2017-08-21T02:14:35.129Z,94.59
2017-08-21T02:15:35.273Z,94.56
2017-08-21T02:16:35.218Z,95.39
2017-08-21T02:17:35.299Z,94.81
2017-08-21T02:18:35.159Z,95.38
2017-08-21T02:19:34.717Z,95.12
2017-08-21T02:20:35.263Z,93.32
2017-08-21T02:21:34.797Z,92.69
2017-08-21T02:22:34.855Z,93.71
2017-08-21T02:23:34.796Z,93.05
2017-08-21T02:24:34.729Z,94.48
2017-08-21T02:25:34.772Z,93.14
2017-08-21T02:26:36.116Z,93.52
2017-08-21T02:27:34.845Z,94.60
2017-08-21T02:28:35.186Z,93.50
2017-08-21T02:29:35.217Z,93.52
2017-08-21T02:30:35.262Z,94.31
2017-08-21T02:31:35.498Z,93.54
2017-08-21T02:32:35.336Z,94.07
2017-08-21T02:33:35.177Z,93.26
2017-08-21T02:34:35.217Z,92.30
2017-08-21T02:35:35.261Z,93.37
2017-08-21T02:36:35.300Z,92.74
2017-08-21T02:37:34.834Z,92.76
2017-08-21T02:38:34.872Z,93.39
2017-08-21T02:39:34.825Z,93.20
2017-08-21T02:40:34.869Z,94.00
2017-08-21T02:41:34.826Z,94.20
2017-08-21T02:42:34.869Z,94.60
2017-08-21T02:43:34.835Z,93.99
2017-08-21T02:44:35.272Z,94.74
2017-08-21T02:45:35.241Z,94.10
2017-08-21T02:46:35.289Z,94.64
2017-08-21T02:47:35.324Z,94.75
2017-08-21T02:48:35.263Z,94.82
2017-08-21T02:49:35.305Z,94.96
2017-08-21T02:50:35.270Z,94.66
2017-08-21T02:51:35.218Z,95.05
2017-08-21T02:52:35.403Z,95.32
2017-08-21T02:53:34.840Z,95.42
2017-08-21T02:54:34.904Z,94.83
2017-08-21T02:55:34.846Z,94.77
2017-08-21T02:56:34.890Z,95.75
2017-08-21T02:57:34.936Z,95.65
2017-08-21T02:58:34.871Z,95.46
2017-08-21T02:59:34.900Z,95.60
2017-08-21T03:00:34.842Z,95.18
2017-08-21T03:01:35.295Z,95.52
2017-08-21T03:02:35.342Z,95.25
2017-08-21T03:03:35.279Z,95.54
2017-08-21T03:04:35.452Z,95.19
2017-08-21T03:05:35.282Z,94.88
2017-08-21T03:06:35.348Z,95.24
2017-08-21T03:07:35.386Z,94.51
2017-08-21T03:08:35.331Z,95.79
2017-08-21T03:09:34.868Z,95.08
2017-08-21T03:10:34.907Z,94.55
2017-08-21T03:11:34.896Z,95.21
2017-08-21T03:12:34.957Z,95.98
2017-08-21T03:13:34.909Z,95.74
2017-08-21T03:14:34.948Z,94.70
2017-08-21T03:15:34.985Z,94.88
2017-08-21T03:16:34.915Z,94.72
2017-08-21T03:17:34.984Z,94.77
2017-08-21T03:18:35.320Z,95.07
2017-08-21T03:19:35.359Z,95.26
2017-08-21T03:20:35.356Z,95.30
2017-08-21T03:21:35.299Z,95.32
2017-08-21T03:22:35.337Z,95.39
2017-08-21T03:23:35.379Z,95.45
2017-08-21T03:24:35.648Z,95.37
2017-08-21T03:25:35.393Z,95.50
2017-08-21T03:26:34.940Z,95.10
2017-08-21T03:27:35.000Z,95.19
2017-08-21T03:28:34.960Z,94.89
2017-08-21T03:29:34.939Z,95.22
2017-08-21T03:30:35.007Z,95.27
2017-08-21T03:31:34.952Z,95.65
2017-08-21T03:32:34.987Z,95.24
2017-08-21T03:33:34.928Z,94.95
2017-08-21T03:34:35.361Z,95.66
2017-08-21T03:35:35.438Z,95.56
2017-08-21T03:36:35.372Z,95.39
2017-08-21T03:37:35.341Z,95.67
2017-08-21T03:38:35.383Z,96.09
2017-08-21T03:39:35.451Z,95.88
2017-08-21T03:40:35.516Z,95.67
2017-08-21T03:41:35.449Z,95.74
2017-08-21T03:42:35.001Z,95.61
2017-08-21T03:43:35.044Z,95.41
2017-08-21T03:44:34.977Z,94.61
2017-08-21T03:45:35.015Z,95.36
2017-08-21T03:46:35.064Z,95.66
2017-08-21T03:47:35.017Z,95.85
2017-08-21T03:47:59.975Z,95.85
2017-08-21T03:50:09.676Z,95.72
2017-08-21T03:50:10.283Z,95.43
2017-08-21T03:50:35.050Z,95.22
2017-08-21T03:51:35.486Z,94.77
2017-08-21T03:52:35.448Z,95.16
2017-08-21T03:53:35.488Z,95.35
2017-08-21T03:54:35.525Z,95.02
2017-08-21T03:55:35.488Z,95.49
2017-08-21T03:56:35.533Z,95.10
2017-08-21T03:57:35.517Z,95.41
2017-08-21T03:58:35.477Z,95.50
2017-08-21T03:59:35.024Z,96.11
2017-08-21T04:00:35.588Z,95.92
2017-08-21T04:01:35.046Z,95.44
2017-08-21T04:02:35.102Z,95.41
2017-08-21T04:03:35.093Z,95.78
2017-08-21T04:04:35.050Z,95.78
2017-08-21T04:05:35.115Z,95.69
2017-08-21T04:06:35.059Z,95.71
2017-08-21T04:07:35.533Z,96.20
2017-08-21T04:08:35.485Z,95.39
2017-08-21T04:09:35.533Z,96.21
2017-08-21T04:10:35.500Z,95.71
2017-08-21T04:11:35.539Z,95.27
2017-08-21T04:12:35.503Z,95.77
2017-08-21T04:13:35.476Z,95.20
2017-08-21T04:14:35.522Z,95.23
2017-08-21T04:15:35.574Z,95.61
2017-08-21T04:16:35.121Z,95.87
2017-08-21T04:17:35.094Z,96.66
2017-08-21T04:18:35.092Z,96.12
2017-08-21T04:19:35.127Z,96.33
2017-08-21T04:20:35.183Z,95.13
2017-08-21T04:21:35.135Z,95.63
2017-08-21T04:22:35.078Z,95.57
2017-08-21T04:23:35.554Z,95.45
2017-08-21T04:24:35.613Z,96.14
2017-08-21T04:25:40.698Z,96.19
2017-08-21T04:26:35.148Z,95.96
2017-08-21T04:27:35.593Z,95.88
2017-08-21T04:28:35.544Z,96.00
2017-08-21T04:29:35.594Z,96.28
2017-08-21T04:30:35.576Z,95.95
2017-08-21T04:31:35.587Z,96.25
2017-08-21T04:32:35.161Z,95.43
2017-08-21T04:33:35.155Z,95.66
2017-08-21T04:34:35.136Z,95.72
2017-08-21T04:35:35.118Z,95.90
2017-08-21T04:36:35.194Z,95.46
2017-08-21T04:37:35.167Z,95.31
2017-08-21T04:38:35.228Z,95.68
2017-08-21T04:39:35.211Z,95.52
2017-08-21T04:40:35.620Z,95.76
2017-08-21T04:41:35.634Z,95.78
2017-08-21T04:42:35.582Z,96.22
2017-08-21T04:43:35.637Z,96.09
2017-08-21T04:44:35.625Z,96.25
2017-08-21T04:45:35.609Z,96.37
2017-08-21T04:46:35.639Z,96.89
2017-08-21T04:47:35.634Z,96.61
2017-08-21T04:48:35.196Z,96.28
2017-08-21T04:49:35.243Z,96.33
2017-08-21T04:50:35.230Z,95.76
2017-08-21T04:51:35.299Z,95.84
2017-08-21T04:52:35.214Z,95.52
2017-08-21T04:53:35.252Z,96.04
2017-08-21T04:54:35.244Z,94.50
2017-08-21T04:55:35.183Z,96.33
2017-08-21T04:56:35.691Z,95.84
2017-08-21T04:57:35.679Z,95.53
2017-08-21T04:58:35.681Z,95.56
2017-08-21T04:59:35.614Z,95.63
2017-08-21T05:00:35.672Z,95.56
2017-08-21T05:01:35.660Z,95.93
2017-08-21T05:02:35.668Z,95.48
2017-08-21T05:03:35.589Z,95.58
2017-08-21T05:04:35.660Z,95.97
2017-08-21T05:05:35.239Z,95.94
2017-08-21T05:06:35.300Z,95.51
2017-08-21T05:07:35.263Z,95.38
2017-08-21T05:08:35.269Z,95.30
2017-08-21T05:09:35.260Z,95.03
2017-08-21T05:10:35.276Z,94.77
2017-08-21T05:11:35.299Z,94.77
2017-08-21T05:12:35.250Z,94.18
2017-08-21T05:13:35.669Z,94.42
2017-08-21T05:14:35.658Z,94.08
2017-08-21T05:15:35.924Z,94.38
2017-08-21T05:16:35.707Z,93.52
2017-08-21T05:17:35.767Z,93.29
2017-08-21T05:18:35.637Z,93.11
2017-08-21T05:19:35.660Z,93.48
2017-08-21T05:20:35.699Z,93.91
2017-08-21T05:21:35.708Z,93.64
2017-08-21T05:22:35.305Z,93.51
2017-08-21T05:23:35.293Z,92.82
2017-08-21T05:24:35.302Z,92.06
2017-08-21T05:25:35.335Z,92.07
2017-08-21T05:26:35.353Z,92.31
2017-08-21T05:27:35.291Z,91.33
2017-08-21T05:28:35.295Z,90.29
2017-08-21T05:29:35.261Z,89.53
2017-08-21T05:30:35.700Z,89.10
2017-08-21T05:31:35.714Z,89.69
2017-08-21T05:32:35.768Z,89.32
2017-08-21T05:33:35.764Z,89.28
2017-08-21T05:34:35.725Z,89.40
2017-08-21T05:35:35.704Z,88.86
2017-08-21T05:36:35.744Z,89.06
2017-08-21T05:37:35.732Z,88.08
2017-08-21T05:38:35.766Z,88.74
2017-08-21T05:39:35.338Z,87.35
2017-08-21T05:40:35.325Z,87.25
2017-08-21T05:41:35.323Z,86.68
2017-08-21T05:42:35.362Z,85.99
2017-08-21T05:43:35.379Z,86.53
2017-08-21T05:44:35.356Z,86.86
2017-08-21T05:45:35.333Z,86.57
2017-08-21T05:46:40.780Z,87.26
2017-08-21T05:47:35.408Z,84.61
2017-08-21T05:48:35.814Z,84.89
2017-08-21T05:49:35.762Z,86.47
2017-08-21T05:50:35.761Z,86.30
2017-08-21T05:51:35.810Z,86.47
2017-08-21T05:52:35.761Z,85.00
2017-08-21T05:53:35.755Z,85.59
2017-08-21T05:54:35.846Z,85.17
2017-08-21T05:55:35.797Z,85.75
2017-08-21T05:56:35.423Z,84.37
2017-08-21T05:57:36.154Z,85.21
2017-08-21T05:58:35.368Z,85.23
2017-08-21T05:59:35.393Z,86.08
2017-08-21T06:00:35.426Z,84.61
2017-08-21T06:01:35.378Z,86.34
2017-08-21T06:02:35.439Z,83.24
2017-08-21T06:03:35.354Z,83.45
2017-08-21T06:04:35.860Z,83.39
2017-08-21T06:05:35.875Z,84.62
2017-08-21T06:06:35.820Z,83.29
2017-08-21T07:04:52.183Z,71.48
2017-08-21T07:05:23.896Z,71.28
2017-08-21T07:06:16.706Z,72.31
2017-08-21T07:06:48.190Z,72.99
2017-08-21T07:07:46.625Z,72.92
2017-08-21T07:09:09.560Z,70.94
2017-08-21T07:09:46.995Z,70.76
2017-08-21T07:10:45.781Z,72.37
2017-08-21T07:12:06.604Z,71.11
2017-08-21T07:12:45.857Z,72.17
2017-08-21T07:13:45.785Z,73.87
2017-08-21T07:14:45.822Z,67.87
2017-08-21T07:16:06.507Z,68.26
2017-08-21T07:16:45.783Z,70.76
2017-08-21T07:17:45.893Z,70.07
2017-08-21T07:18:45.805Z,72.71
2017-08-21T07:20:06.554Z,72.44
2017-08-21T07:20:45.808Z,68.90
2017-08-21T07:21:45.777Z,68.18
2017-08-21T07:22:45.862Z,66.05
2017-08-21T07:24:06.606Z,69.19
2017-08-21T07:24:45.771Z,67.95
2017-08-21T07:25:45.809Z,70.36
2017-08-21T07:26:45.755Z,70.79
2017-08-21T07:28:06.685Z,68.03
2017-08-21T07:28:45.793Z,69.23
2017-08-21T07:29:45.812Z,67.69
2017-08-21T07:30:45.782Z,69.73
2017-08-21T07:32:06.743Z,69.10
2017-08-21T07:32:45.952Z,67.62
2017-08-21T07:33:45.813Z,67.95
2017-08-21T07:34:45.838Z,66.62
2017-08-21T07:36:06.574Z,67.35
2017-08-21T07:36:45.841Z,70.91
2017-08-21T07:37:45.923Z,70.60
2017-08-21T07:38:45.812Z,71.78
2017-08-21T07:40:06.695Z,72.39
2017-08-21T07:40:45.864Z,67.74
2017-08-21T07:41:45.808Z,67.97
2017-08-21T07:42:45.869Z,68.75
2017-08-21T07:44:06.779Z,70.27
2017-08-21T07:44:45.911Z,66.01
2017-08-21T07:45:45.862Z,65.92
2017-08-21T07:46:45.891Z,66.19
2017-08-21T07:48:06.721Z,67.08
2017-08-21T07:48:45.915Z,66.57
2017-08-21T07:49:45.899Z,65.39
2017-08-21T07:50:45.945Z,64.63
2017-08-21T07:52:06.845Z,63.92
2017-08-21T07:52:45.848Z,64.24
2017-08-21T07:53:45.932Z,65.12
2017-08-21T07:54:45.870Z,66.10
2017-08-21T07:56:06.767Z,63.66
2017-08-21T07:56:45.945Z,65.07
2017-08-21T07:57:45.950Z,63.45
2017-08-21T07:58:45.870Z,63.33
2017-08-21T08:00:06.731Z,62.73
2017-08-21T08:00:45.943Z,63.66
2017-08-21T08:01:45.959Z,64.44
2017-08-21T08:02:45.994Z,65.43
2017-08-21T08:04:06.586Z,61.34
2017-08-21T08:04:45.920Z,60.17
2017-08-21T08:05:45.932Z,62.93
2017-08-21T08:06:45.928Z,65.12
2017-08-21T08:08:06.815Z,62.17
2017-08-21T08:08:45.996Z,62.60
2017-08-21T08:09:45.958Z,61.04
2017-08-21T08:10:45.965Z,62.93
2017-08-21T08:12:06.694Z,62.11
2017-08-21T08:12:46.044Z,63.43
2017-08-21T08:13:45.923Z,59.28
2017-08-21T08:14:45.911Z,62.15
2017-08-21T08:16:06.714Z,62.12
2017-08-21T08:16:45.980Z,60.03
2017-08-21T08:17:46.073Z,61.82
2017-08-21T08:18:45.950Z,62.20
2017-08-21T08:20:06.800Z,63.45
2017-08-21T08:20:45.968Z,58.64
2017-08-21T08:21:45.973Z,58.20
2017-08-21T08:22:46.048Z,61.53
2017-08-21T08:24:06.721Z,60.44
2017-08-21T08:24:45.961Z,58.37
2017-08-21T08:25:45.943Z,59.43
2017-08-21T08:26:46.039Z,60.54
2017-08-21T08:28:06.872Z,58.73
2017-08-21T08:28:45.984Z,59.67
2017-08-21T08:29:45.964Z,59.00
2017-08-21T08:31:06.786Z,58.88
2017-08-21T08:31:46.044Z,59.72
2017-08-21T08:32:46.036Z,59.89
2017-08-21T08:33:46.039Z,57.59
2017-08-21T08:35:06.719Z,56.31
2017-08-21T08:35:46.029Z,55.60
2017-08-21T08:36:46.059Z,55.71
2017-08-21T08:37:45.981Z,56.08
2017-08-21T08:39:06.768Z,57.31
2017-08-21T08:39:46.018Z,56.56
2017-08-21T08:40:46.019Z,55.71
2017-08-21T08:41:46.005Z,56.91
2017-08-21T08:43:06.921Z,62.15
2017-08-21T08:43:46.057Z,58.84
2017-08-21T08:44:46.033Z,55.25
2017-08-21T08:45:46.009Z,57.03
2017-08-21T08:47:06.781Z,55.49
2017-08-21T08:47:46.066Z,56.54
2017-08-21T08:48:46.011Z,55.64
2017-08-21T08:49:46.039Z,57.24
2017-08-21T08:51:06.765Z,57.87
2017-08-21T08:51:46.025Z,57.55
2017-08-21T08:52:46.072Z,52.98
2017-08-21T08:53:46.081Z,53.82
2017-08-21T08:55:06.804Z,55.81
2017-08-21T08:55:46.027Z,57.45
2017-08-21T08:56:46.067Z,55.72
2017-08-21T08:58:06.850Z,54.72
2017-08-21T08:58:46.138Z,55.07
2017-08-21T08:59:46.070Z,56.36
2017-08-21T09:00:46.117Z,55.00
2017-08-21T09:02:06.855Z,60.68
2017-08-21T09:02:46.100Z,55.06
2017-08-21T09:03:46.125Z,56.17
2017-08-21T09:05:06.873Z,56.55
2017-08-21T09:05:46.103Z,54.36
2017-08-21T09:06:46.164Z,55.14
2017-08-21T09:07:46.121Z,55.19
2017-08-21T09:09:06.783Z,56.86
2017-08-21T09:09:46.087Z,55.97
2017-08-21T09:10:46.161Z,55.17
2017-08-21T09:11:46.140Z,57.99
2017-08-21T09:13:07.059Z,58.05
2017-08-21T09:13:46.137Z,58.92
2017-08-21T09:14:46.096Z,58.78
2017-08-21T09:15:46.167Z,54.72
2017-08-21T09:17:06.914Z,55.89
2017-08-21T09:17:46.111Z,56.37
2017-08-21T09:18:46.186Z,54.82
2017-08-21T09:19:46.186Z,55.73
2017-08-21T09:21:06.941Z,57.03
2017-08-21T09:21:46.202Z,58.04
2017-08-21T09:22:46.207Z,60.23
2017-08-21T09:23:46.129Z,55.56
2017-08-21T09:25:06.929Z,52.67
2017-08-21T09:25:46.212Z,53.69
2017-08-21T09:26:46.154Z,55.10
2017-08-21T09:27:46.199Z,56.71
2017-08-21T09:29:06.914Z,52.26
2017-08-21T09:29:46.215Z,53.30
2017-08-21T09:30:46.199Z,53.96
2017-08-21T09:31:46.148Z,52.35
2017-08-21T09:33:06.992Z,51.12
2017-08-21T09:33:46.186Z,51.12
2017-08-21T09:34:46.147Z,50.46
2017-08-21T09:35:46.287Z,49.70
2017-08-21T09:37:06.963Z,48.84
2017-08-21T09:37:46.229Z,45.52
2017-08-21T09:38:46.216Z,50.37
2017-08-21T09:39:46.223Z,48.98
2017-08-21T09:41:06.975Z,50.40
2017-08-21T09:41:46.162Z,46.53
2017-08-21T09:42:46.237Z,46.68
2017-08-21T09:43:46.283Z,48.63
2017-08-21T09:45:06.978Z,47.02
2017-08-21T09:45:46.265Z,47.46
2017-08-21T09:46:46.201Z,48.88
2017-08-21T09:47:46.212Z,51.24
2017-08-21T09:49:06.998Z,53.65
2017-08-21T09:49:46.286Z,55.24
2017-08-21T09:50:46.209Z,52.95
2017-08-21T09:51:46.210Z,55.70
2017-08-21T09:53:06.995Z,55.22
2017-08-21T09:53:46.270Z,52.03
2017-08-21T09:54:46.197Z,54.98
2017-08-21T09:55:46.215Z,58.75
2017-08-21T09:57:07.024Z,57.56
2017-08-21T09:57:46.292Z,53.06
2017-08-21T09:58:46.253Z,55.37
2017-08-21T09:59:46.253Z,53.03
2017-08-21T10:01:07.211Z,49.88
2017-08-21T10:01:46.305Z,50.86
2017-08-21T10:02:46.276Z,47.72
2017-08-21T10:03:44.567Z,47.72
2017-08-21T10:04:15.662Z,47.77
2017-08-21T10:05:07.705Z,48.40
2017-08-21T10:06:07.132Z,48.65
2017-08-21T10:06:46.295Z,46.11
2017-08-21T10:07:46.319Z,49.81
2017-08-21T10:08:46.225Z,51.31
2017-08-21T10:10:07.381Z,54.22
2017-08-21T10:10:46.281Z,51.44
2017-08-21T10:11:46.284Z,56.10
2017-08-21T10:13:07.041Z,55.27
2017-08-21T10:13:46.330Z,55.93
2017-08-21T10:14:46.318Z,56.50
2017-08-21T10:15:46.287Z,56.91
2017-08-21T10:17:07.090Z,56.03
2017-08-21T10:17:46.351Z,60.35
2017-08-21T10:18:46.307Z,58.23
2017-08-21T10:19:46.362Z,58.26
2017-08-21T10:21:07.112Z,57.90
2017-08-21T10:21:46.350Z,60.07
2017-08-21T10:22:46.363Z,59.33
2017-08-21T10:24:07.159Z,57.96
2017-08-21T10:24:46.316Z,57.80
2017-08-21T10:25:46.297Z,53.24
2017-08-21T10:26:44.745Z,53.24
2017-08-21T10:27:15.888Z,52.16
2017-08-21T10:28:07.902Z,51.78
2017-08-21T10:29:07.054Z,49.65
2017-08-21T10:29:46.363Z,51.59
2017-08-21T10:30:46.327Z,49.47
2017-08-21T10:31:46.374Z,50.00
2017-08-21T10:33:07.070Z,49.90
2017-08-21T10:33:46.354Z,49.72
2017-08-21T10:34:46.407Z,48.27
2017-08-21T10:35:46.359Z,45.24
2017-08-21T10:37:07.056Z,44.23
2017-08-21T10:37:46.338Z,46.67
2017-08-21T10:38:46.385Z,46.76
2017-08-21T10:39:46.425Z,43.29
2017-08-21T10:41:07.205Z,47.32
2017-08-21T10:41:46.411Z,47.68
2017-08-21T10:42:46.373Z,49.57
2017-08-21T10:43:46.436Z,52.62
2017-08-21T10:45:07.266Z,47.58
2017-08-21T10:45:44.774Z,47.58
2017-08-21T10:46:36.762Z,49.21
2017-08-21T10:47:07.910Z,47.90
2017-08-21T10:47:55.795Z,48.00
2017-08-21T10:49:07.174Z,48.17
2017-08-21T10:49:46.359Z,49.75
2017-08-21T10:50:46.374Z,44.95
2017-08-21T10:51:46.420Z,45.23
2017-08-21T10:53:07.263Z,47.97
2017-08-21T10:53:46.413Z,42.94
2017-08-21T10:54:46.449Z,45.79
2017-08-21T10:55:46.397Z,44.43
2017-08-21T10:57:07.175Z,44.82
2017-08-21T10:57:46.408Z,45.79
2017-08-21T10:58:46.537Z,46.19
2017-08-21T10:59:46.496Z,45.24
2017-08-21T11:01:07.281Z,43.85
2017-08-21T11:01:46.442Z,43.80
2017-08-21T11:02:46.442Z,41.87
2017-08-21T11:04:07.286Z,42.56
2017-08-21T11:04:46.408Z,44.98
2017-08-21T11:05:46.479Z,46.74
2017-08-21T11:06:46.432Z,44.94
2017-08-21T11:08:07.222Z,43.25
2017-08-21T11:08:46.544Z,44.01
2017-08-21T11:09:46.468Z,45.52
2017-08-21T11:10:46.459Z,46.24
2017-08-21T11:12:07.202Z,44.89
2017-08-21T11:12:46.513Z,44.16
2017-08-21T11:13:46.559Z,40.57
2017-08-21T11:14:46.451Z,42.82
2017-08-21T11:16:07.187Z,42.66
2017-08-21T11:16:46.498Z,50.92
2017-08-21T11:17:46.518Z,47.38
2017-08-21T11:18:46.579Z,44.46
2017-08-21T11:20:07.343Z,44.24
2017-08-21T11:20:46.488Z,45.05
2017-08-21T11:21:46.501Z,48.06
2017-08-21T11:22:46.546Z,44.14
2017-08-21T11:24:07.331Z,47.82
2017-08-21T11:24:46.571Z,47.47
2017-08-21T11:25:46.482Z,46.12
2017-08-21T11:26:46.476Z,44.22
2017-08-21T11:28:07.213Z,45.99
2017-08-21T11:28:46.602Z,46.30
2017-08-21T11:29:46.521Z,45.48
2017-08-21T11:30:46.567Z,47.12
2017-08-21T11:32:07.279Z,42.27
2017-08-21T11:32:46.487Z,45.23
2017-08-21T11:33:46.536Z,43.66
2017-08-21T11:34:46.489Z,46.07
2017-08-21T11:36:07.338Z,44.39
2017-08-21T11:36:46.516Z,42.58
2017-08-21T11:37:46.525Z,45.04
2017-08-21T11:38:46.553Z,47.18
2017-08-21T11:40:07.347Z,49.62
2017-08-21T11:40:46.512Z,50.10
2017-08-21T11:41:46.506Z,50.21
2017-08-21T11:42:46.566Z,49.85
2017-08-21T11:44:07.425Z,47.62
2017-08-21T11:44:46.589Z,48.52
2017-08-21T11:45:46.554Z,48.06
2017-08-21T11:46:46.574Z,44.97
2017-08-21T11:48:07.345Z,47.75
2017-08-21T11:48:46.615Z,44.93
2017-08-21T11:49:46.646Z,45.80
2017-08-21T11:50:46.541Z,45.12
2017-08-21T11:52:07.390Z,49.03
2017-08-21T11:52:46.583Z,45.79
2017-08-21T11:53:46.586Z,46.10
2017-08-21T11:55:07.568Z,45.59
2017-08-21T11:55:46.616Z,48.39
2017-08-21T11:56:46.573Z,46.64
2017-08-21T11:57:46.574Z,46.03
2017-08-21T11:59:07.310Z,45.58
2017-08-21T11:59:46.637Z,48.04
2017-08-21T12:00:46.595Z,48.70
2017-08-21T12:01:46.650Z,45.46
2017-08-21T12:03:07.513Z,46.58
2017-08-21T12:03:46.578Z,45.41
2017-08-21T12:04:46.652Z,44.59
2017-08-21T12:06:07.359Z,46.99
2017-08-21T12:06:44.986Z,46.99
2017-08-21T12:07:36.837Z,47.98
2017-08-21T12:08:08.056Z,48.85
2017-08-21T12:08:56.375Z,51.20
2017-08-21T12:10:07.369Z,49.29
2017-08-21T12:10:46.638Z,49.15
2017-08-21T12:11:46.677Z,50.12
2017-08-21T12:12:46.616Z,48.77
2017-08-21T12:14:07.533Z,49.44
2017-08-21T12:14:46.659Z,48.17
2017-08-21T12:15:46.655Z,50.17
2017-08-21T12:16:46.697Z,47.72
2017-08-21T12:18:07.449Z,47.45
2017-08-21T12:18:46.708Z,45.55
2017-08-21T12:19:46.600Z,44.58
2017-08-21T12:20:46.622Z,51.85
2017-08-21T12:22:07.395Z,48.12
2017-08-21T12:22:46.699Z,48.21
2017-08-21T12:23:46.715Z,49.27
2017-08-21T12:24:46.685Z,48.93
2017-08-21T12:26:07.379Z,52.74
2017-08-21T12:26:46.627Z,54.17
2017-08-21T12:27:46.713Z,49.92
2017-08-21T12:28:46.673Z,53.73
2017-08-21T12:30:07.407Z,53.71
2017-08-21T12:30:46.639Z,49.00
2017-08-21T12:31:46.710Z,59.01
2017-08-21T12:32:46.780Z,52.10
2017-08-21T12:34:07.569Z,56.79
2017-08-21T12:34:46.723Z,54.88
2017-08-21T12:35:46.745Z,51.92
2017-08-21T12:36:46.709Z,51.01
2017-08-21T12:38:07.433Z,47.35
2017-08-21T12:38:46.731Z,51.47
2017-08-21T12:39:46.769Z,51.02
2017-08-21T12:40:46.670Z,51.29
2017-08-21T12:42:07.604Z,49.53
2017-08-21T12:42:46.764Z,51.86
2017-08-21T12:43:46.874Z,48.38
2017-08-21T12:44:46.795Z,52.03
2017-08-21T12:46:07.571Z,50.55
2017-08-21T12:46:46.754Z,50.44
2017-08-21T12:47:46.686Z,47.06
2017-08-21T12:48:46.722Z,49.74
2017-08-21T12:50:07.601Z,49.92
2017-08-21T12:50:46.771Z,48.57
2017-08-21T12:51:46.700Z,49.27
2017-08-21T12:52:46.815Z,52.46
2017-08-21T12:54:07.481Z,46.94
2017-08-21T12:54:46.843Z,47.97
2017-08-21T12:55:46.745Z,48.96
2017-08-21T12:56:46.735Z,53.42
2017-08-21T12:58:07.457Z,49.66
2017-08-21T12:58:46.811Z,48.71
2017-08-21T12:59:46.788Z,50.94
2017-08-21T13:00:47.621Z,50.57
2017-08-21T13:02:07.638Z,50.92
2017-08-21T13:02:46.761Z,47.54
2017-08-21T13:03:46.813Z,50.82
2017-08-21T13:04:46.893Z,51.15
2017-08-21T13:06:07.569Z,48.10
2017-08-21T13:06:46.804Z,48.43
2017-08-21T13:07:46.824Z,49.50
2017-08-21T13:08:46.813Z,51.08
2017-08-21T13:10:07.654Z,49.66
2017-08-21T13:10:46.798Z,49.91
2017-08-21T13:11:46.840Z,52.06
2017-08-21T13:12:46.830Z,51.66
2017-08-21T13:14:07.541Z,49.67
2017-08-21T13:14:46.892Z,49.68
2017-08-21T13:15:46.818Z,48.57
2017-08-21T13:16:47.080Z,49.03
2017-08-21T13:18:07.611Z,49.22
2017-08-21T13:18:46.775Z,50.93
2017-08-21T13:19:46.842Z,45.32
2017-08-21T13:20:46.815Z,48.60
2017-08-21T13:22:07.589Z,50.10
2017-08-21T13:22:46.835Z,51.12
2017-08-21T13:23:46.863Z,47.98
2017-08-21T13:24:46.831Z,50.96
2017-08-21T13:26:07.700Z,53.95
2017-08-21T13:26:46.977Z,55.64
2017-08-21T13:27:46.816Z,51.61
2017-08-21T13:28:46.828Z,46.32
2017-08-21T13:30:07.696Z,52.18
2017-08-21T13:30:47.265Z,50.11
2017-08-21T13:31:46.862Z,52.43
2017-08-21T13:32:46.901Z,52.21
2017-08-21T13:34:07.567Z,50.86
2017-08-21T13:34:46.818Z,53.66
2017-08-21T13:35:46.904Z,52.42
2017-08-21T16:17:14.877Z,56.95
2017-08-21T16:17:36.976Z,59.42
2017-08-21T16:18:37.566Z,56.02
2017-08-21T16:19:37.623Z,58.36
2017-08-21T16:20:37.719Z,57.10
2017-08-21T16:21:37.590Z,57.03
2017-08-21T16:22:37.788Z,58.79
2017-08-21T16:23:37.651Z,58.19